This is the latest recevied weather packets stored in our database for station/object KB9PVH-3. If no packets are shown the sender has not sent any weather packets the latest 10 day(s).
| Time | Temp. | Humidity | Pressure | Rain* | Wind** | Luminosity | Snow |
|---|---|---|---|---|---|---|---|
| 1778041716 | 5.56° C | 51% | 1013 hPa | 0 mm | - | - | - |
| 1778040665 | 5.56° C | 51% | 1012.9 hPa | 0 mm | - | - | - |
| 1778039616 | 6.11° C | 49% | 1012.8 hPa | 0 mm | - | - | - |
| 1778038567 | 6.67° C | 48% | 1012.8 hPa | 0 mm | - | - | - |
| 1778037515 | 7.22° C | 46% | 1012.8 hPa | 0 mm | - | - | - |
| 1778036465 | 7.78° C | 45% | 1012.6 hPa | 0 mm | - | - | - |
| 1778035416 | 7.78° C | 46% | 1012.5 hPa | 0 mm | - | - | - |
| 1778034370 | 7.78° C | 46% | 1012.2 hPa | 0 mm | - | - | - |
| 1778033317 | 7.78° C | 46% | 1012.2 hPa | 0 mm | - | - | - |
| 1778032276 | 8.33° C | 49% | 1011.9 hPa | 0 mm | - | - | - |
| 1778031399 | 8.89° C | 47% | 1011.3 hPa | 0 mm | - | - | - |
| 1778030347 | 8.89° C | 46% | 1011.2 hPa | 0 mm | - | - | - |
| 1778029299 | 10° C | 43% | 1011 hPa | 0 mm | - | - | - |
| 1778028249 | 10.56° C | 42% | 1010.9 hPa | 0 mm | - | - | - |
| 1778026149 | 12.22° C | 35% | 1010.5 hPa | 0 mm | - | - | - |
| 1778025095 | 12.22° C | 38% | 1010.5 hPa | 0 mm | - | - | - |
| 1778020897 | 13.89° C | 36% | 1010.2 hPa | 0 mm | - | - | - |
| 1778019849 | 15° C | 32% | 1009.9 hPa | 0 mm | - | - | - |
| 1778018795 | 15.56° C | 33% | 1009.9 hPa | 0 mm | - | - | - |
| 1778016699 | 15.56° C | 28% | 1009.9 hPa | 0 mm | - | - | - |
| 1778015645 | 15.56° C | 33% | 1010.1 hPa | 0 mm | - | - | - |
| 1778014599 | 15.56° C | 30% | 1010.1 hPa | 0 mm | - | - | - |
| 1778013549 | 15° C | 31% | 1010 hPa | 0 mm | - | - | - |
| 1778012495 | 15.56° C | 30% | 1010.3 hPa | 0 mm | - | - | - |
| 1778011446 | 15° C | 34% | 1010.2 hPa | 0 mm | - | - | - |
* Rain latest hour (hover to see other rain measurements)
** Current wind speed in m/s (hover to see current wind gust speed)